Time;durP1;ratioP1;P1;durP2;ratioP2;P2;SDS_P1;SDS_P2;PMS_P1;PMS_P2;Temp;Humidity;BMP_temperature;BMP_pressure;BME280_temperature;BME280_humidity;BME280_pressure;Samples;Min_cycle;Max_cycle;Signal;HPM_P1;HPM_P2
2023/12/08 00:01:36;;;;;;;38.03;22.20;;;3.10;99.90;;;;;;5023493;28;20254;-36
2023/12/08 00:04:02;;;;;;;43.00;22.08;;;3.10;99.90;;;;;;5023392;28;20218;-37
2023/12/08 00:06:29;;;;;;;35.80;21.58;;;3.10;99.90;;;;;;5023206;28;20242;-36
2023/12/08 00:08:55;;;;;;;35.58;21.45;;;3.10;99.90;;;;;;5021366;28;21066;-36
2023/12/08 00:11:21;;;;;;;36.42;21.80;;;3.10;99.90;;;;;;5022904;28;20212;-39
2023/12/08 00:13:47;;;;;;;33.03;20.92;;;3.10;99.90;;;;;;5023011;28;20287;-36
2023/12/08 00:16:13;;;;;;;33.92;21.23;;;3.10;99.90;;;;;;5022770;28;20191;-37
2023/12/08 00:18:39;;;;;;;37.40;22.48;;;3.10;99.90;;;;;;5023252;28;20176;-36
2023/12/08 00:21:05;;;;;;;34.42;20.98;;;3.10;99.90;;;;;;5022942;28;20203;-36
2023/12/08 00:23:31;;;;;;;36.78;21.92;;;3.10;99.90;;;;;;5022660;28;20204;-38
2023/12/08 00:25:57;;;;;;;35.72;21.13;;;3.10;99.90;;;;;;5005842;28;20203;-36
2023/12/08 00:28:23;;;;;;;32.40;19.80;;;3.10;99.90;;;;;;5037765;28;20722;-37
2023/12/08 00:30:49;;;;;;;37.88;21.05;;;3.10;99.90;;;;;;5022406;28;20250;-37
2023/12/08 00:33:15;;;;;;;32.78;20.33;;;3.10;99.90;;;;;;5022982;28;20184;-36
2023/12/08 00:35:41;;;;;;;36.13;21.08;;;3.10;99.90;;;;;;5022512;28;20198;-37
2023/12/08 00:38:07;;;;;;;38.05;21.58;;;3.10;99.90;;;;;;5022961;28;20222;-36
2023/12/08 00:40:33;;;;;;;34.97;21.00;;;3.10;99.90;;;;;;5053701;28;21948;-38
2023/12/08 00:42:59;;;;;;;34.75;21.52;;;3.10;99.90;;;;;;5022793;28;20227;-38
2023/12/08 00:45:24;;;;;;;34.13;21.35;;;3.10;99.90;;;;;;5021225;28;20279;-37
2023/12/08 00:47:50;;;;;;;32.13;20.33;;;3.00;99.90;;;;;;5022103;28;20246;-36
2023/12/08 00:50:16;;;;;;;33.67;21.42;;;3.10;99.90;;;;;;5022378;28;20293;-36
2023/12/08 00:52:42;;;;;;;34.33;20.17;;;3.10;99.90;;;;;;5022208;28;20545;-34
2023/12/08 00:55:08;;;;;;;32.22;20.40;;;3.10;99.90;;;;;;5022009;28;20188;-37
2023/12/08 00:57:34;;;;;;;35.13;20.55;;;3.10;99.90;;;;;;5021998;28;20203;-36
2023/12/08 01:00:00;;;;;;;32.65;20.90;;;3.10;99.90;;;;;;5019615;28;20200;-37
2023/12/08 01:02:26;;;;;;;36.53;22.02;;;3.00;99.90;;;;;;5020460;28;20547;-36
2023/12/08 01:04:52;;;;;;;32.85;20.60;;;3.00;99.90;;;;;;5022471;28;20193;-35
2023/12/08 01:07:18;;;;;;;34.00;20.75;;;3.00;99.90;;;;;;5021954;28;20222;-37
2023/12/08 01:09:44;;;;;;;32.70;21.38;;;3.00;99.90;;;;;;5022864;28;20220;-36
2023/12/08 01:12:10;;;;;;;32.63;20.98;;;3.00;99.90;;;;;;5021961;28;20641;-39
2023/12/08 01:14:35;;;;;;;30.48;19.80;;;3.00;99.90;;;;;;5022189;28;20201;-35
2023/12/08 01:17:01;;;;;;;29.08;19.40;;;3.00;99.90;;;;;;5020964;28;20291;-37
2023/12/08 01:19:27;;;;;;;33.67;21.40;;;3.00;99.90;;;;;;5020635;28;20202;-38
2023/12/08 01:21:53;;;;;;;35.13;20.80;;;3.00;99.90;;;;;;5022331;28;20196;-35
2023/12/08 01:24:19;;;;;;;34.78;20.67;;;2.90;99.90;;;;;;5021854;28;20188;-36
2023/12/08 01:26:45;;;;;;;34.95;20.85;;;2.90;99.90;;;;;;5004067;28;20226;-36
2023/12/08 01:29:12;;;;;;;38.60;22.55;;;2.90;99.90;;;;;;5021300;28;20196;-37
2023/12/08 01:31:37;;;;;;;33.15;20.23;;;2.90;99.90;;;;;;5022038;28;20219;-36
2023/12/08 01:34:03;;;;;;;32.42;21.10;;;2.90;99.90;;;;;;5036854;28;20572;-34
2023/12/08 01:36:29;;;;;;;29.05;19.38;;;2.90;99.90;;;;;;5054024;28;20206;-36
2023/12/08 01:38:55;;;;;;;34.15;21.00;;;2.90;99.90;;;;;;5022451;28;20211;-36
2023/12/08 01:41:21;;;;;;;31.25;20.55;;;2.90;99.90;;;;;;5014437;28;20233;-37
2023/12/08 01:43:47;;;;;;;32.10;20.05;;;2.90;99.90;;;;;;5036912;28;20577;-37
2023/12/08 01:46:15;;;;;;;36.65;21.75;;;3.00;99.90;;;;;;5021150;28;20187;-36
2023/12/08 01:48:46;;;;;;;36.03;20.25;;;3.00;99.90;;;;;;5019757;28;20184;-36
2023/12/08 01:51:13;;;;;;;33.92;20.77;;;2.90;99.90;;;;;;5019831;28;20293;-43
2023/12/08 01:53:40;;;;;;;33.10;21.70;;;3.00;99.90;;;;;;5021737;28;20718;-36
2023/12/08 01:56:08;;;;;;;35.03;22.60;;;3.00;99.90;;;;;;5021744;28;20241;-39
2023/12/08 01:58:34;;;;;;;34.53;20.90;;;3.00;99.90;;;;;;5020988;28;20192;-36
2023/12/08 02:01:04;;;;;;;32.45;20.77;;;2.90;99.90;;;;;;5021334;28;20194;-38
2023/12/08 02:03:33;;;;;;;34.33;21.60;;;3.00;99.90;;;;;;5021144;28;20294;-35
2023/12/08 02:06:00;;;;;;;35.45;21.40;;;3.00;99.90;;;;;;5021310;28;20196;-36
2023/12/08 02:08:27;;;;;;;35.63;22.42;;;3.00;99.90;;;;;;5024619;28;20258;-36
2023/12/08 02:10:53;;;;;;;36.47;22.33;;;3.00;99.90;;;;;;5012928;28;20234;-37
2023/12/08 02:13:23;;;;;;;32.33;19.73;;;3.00;99.90;;;;;;5024895;28;20190;-39
2023/12/08 02:16:03;;;;;;;34.38;21.33;;;3.00;99.90;;;;;;5055863;28;20282;-37
2023/12/08 02:18:32;;;;;;;37.67;22.35;;;3.00;99.90;;;;;;5024652;28;20191;-38
2023/12/08 02:20:58;;;;;;;36.10;20.15;;;3.00;99.90;;;;;;5025009;28;21478;-35
2023/12/08 02:23:24;;;;;;;39.67;23.40;;;3.00;99.90;;;;;;5024891;28;20205;-35
2023/12/08 02:25:50;;;;;;;38.00;21.80;;;3.00;99.90;;;;;;5024803;28;20188;-37
2023/12/08 02:28:16;;;;;;;35.05;22.65;;;3.00;99.90;;;;;;5024688;28;20219;-36
2023/12/08 02:30:42;;;;;;;33.38;21.80;;;3.00;99.90;;;;;;5024396;28;20208;-36
2023/12/08 02:33:13;;;;;;;35.33;21.38;;;3.00;99.90;;;;;;5023905;28;20195;-36
2023/12/08 02:35:42;;;;;;;37.25;22.35;;;3.00;99.90;;;;;;5056130;28;20238;-37
2023/12/08 02:38:10;;;;;;;37.95;21.70;;;3.00;99.90;;;;;;5024764;28;20191;-36
2023/12/08 02:40:36;;;;;;;38.08;22.10;;;3.00;99.90;;;;;;5025109;28;20232;-35
2023/12/08 02:43:03;;;;;;;38.80;23.20;;;3.00;99.90;;;;;;5012306;28;20207;-35
2023/12/08 02:45:29;;;;;;;34.38;22.10;;;3.00;99.90;;;;;;5024120;28;20667;-37
2023/12/08 02:47:55;;;;;;;36.42;22.80;;;3.00;99.90;;;;;;5023751;28;20303;-37
2023/12/08 02:50:21;;;;;;;35.88;21.48;;;3.00;99.90;;;;;;5024299;28;20684;-34
2023/12/08 02:52:47;;;;;;;38.75;22.30;;;3.00;99.90;;;;;;5055738;28;20223;-35
2023/12/08 02:55:13;;;;;;;37.03;22.48;;;3.00;99.90;;;;;;5023446;28;20227;-36
2023/12/08 02:57:39;;;;;;;37.17;21.38;;;3.00;99.90;;;;;;5024507;28;20322;-36
2023/12/08 03:00:05;;;;;;;38.50;22.67;;;3.00;99.90;;;;;;5006432;28;20572;-35
2023/12/08 03:02:31;;;;;;;35.97;22.30;;;3.10;99.90;;;;;;5024126;28;21161;-37
2023/12/08 03:04:57;;;;;;;37.47;21.67;;;3.00;99.90;;;;;;5022594;28;20188;-36
2023/12/08 03:07:23;;;;;;;33.58;21.83;;;3.00;99.90;;;;;;5022697;28;21181;-35
2023/12/08 03:09:49;;;;;;;35.80;21.88;;;3.00;99.90;;;;;;5023202;28;20671;-36
2023/12/08 03:12:14;;;;;;;38.63;22.80;;;3.10;99.90;;;;;;5038256;28;20195;-36
2023/12/08 03:14:40;;;;;;;35.80;22.15;;;3.10;99.90;;;;;;5021419;28;20210;-35
2023/12/08 03:17:07;;;;;;;32.35;19.85;;;3.10;99.90;;;;;;5023204;28;20667;-36
2023/12/08 03:19:33;;;;;;;31.55;20.45;;;3.10;99.90;;;;;;5022699;28;20274;-37
2023/12/08 03:21:59;;;;;;;31.30;20.77;;;3.10;99.90;;;;;;5023674;28;20945;-35
2023/12/08 03:24:25;;;;;;;34.67;20.92;;;3.10;99.90;;;;;;5054959;28;20211;-37
2023/12/08 03:26:50;;;;;;;34.28;20.38;;;3.10;99.90;;;;;;5053203;28;20188;-36
2023/12/08 03:29:16;;;;;;;31.60;20.52;;;3.10;99.90;;;;;;5022485;28;20691;-38
2023/12/08 03:31:43;;;;;;;39.92;21.50;;;3.10;99.90;;;;;;5021601;28;20219;-34
2023/12/08 03:34:09;;;;;;;31.48;20.48;;;3.10;99.90;;;;;;5022467;28;20249;-37
2023/12/08 03:36:35;;;;;;;32.05;19.67;;;3.10;99.90;;;;;;5020923;28;20184;-37
2023/12/08 03:39:01;;;;;;;33.53;20.67;;;3.10;99.90;;;;;;5022741;28;20222;-35
2023/12/08 03:41:27;;;;;;;31.08;19.77;;;3.10;99.90;;;;;;5020786;28;20188;-37
2023/12/08 03:43:53;;;;;;;30.05;20.08;;;3.10;99.90;;;;;;5022393;28;20222;-36
2023/12/08 03:46:19;;;;;;;29.63;19.95;;;3.20;99.90;;;;;;5022116;28;20184;-34
2023/12/08 03:48:45;;;;;;;34.20;20.52;;;3.10;99.90;;;;;;5022314;28;21331;-38
2023/12/08 03:51:11;;;;;;;30.65;20.02;;;3.10;99.90;;;;;;5021867;28;20237;-36
2023/12/08 03:53:38;;;;;;;31.67;19.45;;;3.20;99.90;;;;;;5021696;28;20230;-38
2023/12/08 03:56:05;;;;;;;33.22;20.35;;;3.10;99.90;;;;;;5022258;28;20180;-35
2023/12/08 03:58:31;;;;;;;30.58;19.17;;;3.20;99.90;;;;;;5021375;28;20262;-36
2023/12/08 04:00:56;;;;;;;30.17;18.73;;;3.20;99.90;;;;;;5021781;28;20915;-37
2023/12/08 04:03:22;;;;;;;34.15;19.15;;;3.10;99.90;;;;;;5020157;28;20188;-36
2023/12/08 04:05:48;;;;;;;31.25;19.60;;;3.10;99.90;;;;;;5004212;28;20192;-35
2023/12/08 04:08:14;;;;;;;34.92;20.05;;;3.10;99.90;;;;;;4980325;28;1196306;-35
2023/12/08 04:10:40;;;;;;;29.33;18.30;;;3.10;99.90;;;;;;5021523;28;20219;-37
2023/12/08 04:13:06;;;;;;;26.40;17.05;;;3.10;99.90;;;;;;5022454;28;20191;-37
2023/12/08 04:15:32;;;;;;;31.48;19.75;;;3.10;99.90;;;;;;5022325;28;20594;-38
2023/12/08 04:17:58;;;;;;;29.90;18.65;;;3.10;99.90;;;;;;5022453;28;20192;-35
2023/12/08 04:20:24;;;;;;;31.88;19.60;;;3.10;99.90;;;;;;5022513;28;20188;-35
2023/12/08 04:22:50;;;;;;;29.73;19.50;;;3.10;99.90;;;;;;5023300;28;20192;-36
2023/12/08 04:25:16;;;;;;;33.67;18.98;;;3.10;99.90;;;;;;5023244;28;21237;-35
2023/12/08 04:27:42;;;;;;;30.08;18.95;;;3.10;99.90;;;;;;5023223;28;21077;-36
2023/12/08 04:30:08;;;;;;;29.80;19.45;;;3.00;99.90;;;;;;5021976;28;20270;-38
2023/12/08 04:32:34;;;;;;;28.90;18.67;;;3.00;99.90;;;;;;5023155;28;20192;-35
2023/12/08 04:35:00;;;;;;;31.45;19.15;;;3.00;99.90;;;;;;5022449;28;20649;-36
2023/12/08 04:37:26;;;;;;;31.23;19.60;;;3.00;99.90;;;;;;5021839;28;20242;-35
2023/12/08 04:39:52;;;;;;;32.08;19.08;;;3.00;99.90;;;;;;5022592;28;20183;-36
2023/12/08 04:42:18;;;;;;;33.38;20.40;;;3.00;99.90;;;;;;5022095;28;20203;-35
2023/12/08 04:44:44;;;;;;;31.42;19.75;;;2.90;99.90;;;;;;5022430;28;20226;-35
2023/12/08 04:47:10;;;;;;;30.67;19.63;;;3.00;99.90;;;;;;5022882;28;20192;-36
2023/12/08 04:49:36;;;;;;;36.05;20.77;;;2.90;99.90;;;;;;5022453;28;20694;-38
2023/12/08 04:52:03;;;;;;;33.78;19.38;;;2.90;99.90;;;;;;5020384;28;20217;-35
2023/12/08 04:54:29;;;;;;;32.00;19.40;;;2.90;99.90;;;;;;5021725;28;20335;-34
2023/12/08 04:56:55;;;;;;;32.50;21.00;;;2.90;99.90;;;;;;5022873;28;20275;-37
2023/12/08 04:59:20;;;;;;;33.05;20.75;;;2.80;99.90;;;;;;5022578;28;20645;-36
2023/12/08 05:01:53;;;;;;;35.85;20.10;;;2.80;99.90;;;;;;5021882;28;20184;-38
2023/12/08 05:04:19;;;;;;;34.47;21.08;;;2.80;99.90;;;;;;5021052;28;20546;-37
2023/12/08 05:06:48;;;;;;;37.05;21.50;;;2.70;99.90;;;;;;5020919;28;20590;-37
2023/12/08 05:09:14;;;;;;;31.80;19.50;;;2.70;99.90;;;;;;5021309;28;20184;-37
2023/12/08 05:11:40;;;;;;;33.75;21.17;;;2.70;99.90;;;;;;5021315;28;20587;-35
2023/12/08 05:14:06;;;;;;;32.58;20.75;;;2.70;99.90;;;;;;5022007;28;20204;-35
2023/12/08 05:16:32;;;;;;;34.17;21.17;;;2.70;99.90;;;;;;5021894;28;20189;-36
2023/12/08 05:18:58;;;;;;;34.92;21.20;;;2.60;99.90;;;;;;5021045;28;21401;-36
2023/12/08 05:21:24;;;;;;;34.85;21.98;;;2.60;99.90;;;;;;5053389;28;20223;-37
2023/12/08 05:23:50;;;;;;;35.58;21.75;;;2.60;99.90;;;;;;5021204;28;20230;-37
2023/12/08 05:26:16;;;;;;;36.15;21.92;;;2.50;99.90;;;;;;5021250;28;20176;-36
2023/12/08 05:28:42;;;;;;;36.25;21.27;;;2.50;99.90;;;;;;5021363;28;20648;-38
2023/12/08 05:31:07;;;;;;;35.80;22.45;;;2.60;99.90;;;;;;5021468;28;20216;-36
2023/12/08 05:33:34;;;;;;;40.55;22.60;;;2.60;99.90;;;;;;5051843;28;20293;-36
2023/12/08 05:36:00;;;;;;;35.80;21.80;;;2.50;99.90;;;;;;5021868;28;20766;-34
2023/12/08 05:38:26;;;;;;;37.65;22.27;;;2.60;99.90;;;;;;5021317;28;20282;-38
2023/12/08 05:40:52;;;;;;;37.38;22.77;;;2.60;99.90;;;;;;5021391;28;20183;-36
2023/12/08 05:43:18;;;;;;;38.38;22.58;;;2.60;99.90;;;;;;5019755;28;20206;-39
2023/12/08 05:45:44;;;;;;;39.28;23.45;;;2.60;99.90;;;;;;5021406;28;20184;-37
2023/12/08 05:48:10;;;;;;;45.28;23.08;;;2.50;99.90;;;;;;5022683;28;20215;-37
2023/12/08 05:50:36;;;;;;;42.20;23.77;;;2.50;99.90;;;;;;5021038;28;20230;-37
2023/12/08 05:53:02;;;;;;;42.67;23.98;;;2.50;99.90;;;;;;5020094;28;20885;-37
2023/12/08 05:55:28;;;;;;;38.28;22.23;;;2.50;99.90;;;;;;5021162;28;20290;-36
2023/12/08 05:57:53;;;;;;;41.88;23.27;;;2.50;99.90;;;;;;5019831;28;20543;-35
2023/12/08 06:00:20;;;;;;;36.30;23.13;;;2.50;99.90;;;;;;5021600;28;20184;-36
2023/12/08 06:02:46;;;;;;;37.95;22.50;;;2.50;99.90;;;;;;5020790;28;21362;-38
2023/12/08 06:05:13;;;;;;;36.17;22.65;;;2.50;99.90;;;;;;5020908;28;20682;-37
2023/12/08 06:07:39;;;;;;;39.25;22.52;;;2.50;99.90;;;;;;5021358;28;20224;-35
2023/12/08 06:10:11;;;;;;;38.90;22.75;;;2.50;99.90;;;;;;5022084;28;20207;-36
2023/12/08 06:12:38;;;;;;;41.78;23.17;;;2.50;99.90;;;;;;5021617;28;20196;-37
2023/12/08 06:15:06;;;;;;;41.47;22.95;;;2.50;99.90;;;;;;5021020;28;20175;-35
2023/12/08 06:17:32;;;;;;;42.30;22.77;;;2.50;99.90;;;;;;5021459;28;20268;-36
2023/12/08 06:19:58;;;;;;;41.00;23.95;;;2.50;99.90;;;;;;5019088;28;20195;-36
2023/12/08 06:22:25;;;;;;;43.30;24.50;;;2.50;99.90;;;;;;5021106;28;20204;-37
2023/12/08 06:24:50;;;;;;;42.00;22.73;;;2.50;99.90;;;;;;5019715;28;20676;-37
2023/12/08 06:27:16;;;;;;;42.28;24.70;;;2.50;99.90;;;;;;5053275;28;20245;-38
2023/12/08 06:29:42;;;;;;;42.42;23.90;;;2.50;99.90;;;;;;5020175;28;20277;-36
2023/12/08 06:32:08;;;;;;;43.38;24.48;;;2.50;99.90;;;;;;5020719;28;20180;-36
2023/12/08 06:34:34;;;;;;;37.83;23.33;;;2.50;99.90;;;;;;5018887;28;20367;-36
2023/12/08 06:37:00;;;;;;;38.75;24.05;;;2.50;99.90;;;;;;5001911;28;20211;-36
2023/12/08 06:39:26;;;;;;;37.10;22.58;;;2.50;99.90;;;;;;5020751;28;20184;-37
2023/12/08 06:41:52;;;;;;;43.08;24.48;;;2.50;99.90;;;;;;5021071;28;20192;-37
2023/12/08 06:44:18;;;;;;;39.42;23.92;;;2.50;99.90;;;;;;5020545;28;20188;-38
2023/12/08 06:46:44;;;;;;;43.08;24.60;;;2.50;99.90;;;;;;5052977;28;20240;-35
2023/12/08 06:49:10;;;;;;;39.60;23.77;;;2.50;99.90;;;;;;5020548;28;20176;-35
2023/12/08 06:51:36;;;;;;;42.10;24.88;;;2.60;99.90;;;;;;5020300;28;20204;-37
2023/12/08 06:54:03;;;;;;;41.47;23.70;;;2.60;99.90;;;;;;5022835;28;20542;-36
2023/12/08 06:56:30;;;;;;;39.25;22.65;;;2.60;99.90;;;;;;5023773;28;20259;-38
2023/12/08 06:58:56;;;;;;;41.25;24.67;;;2.60;99.90;;;;;;5024583;28;20215;-35
2023/12/08 07:01:22;;;;;;;40.67;24.48;;;2.60;99.90;;;;;;5024620;28;20565;-37
2023/12/08 07:03:48;;;;;;;42.00;24.98;;;2.70;99.90;;;;;;5023971;28;20204;-35
2023/12/08 07:06:14;;;;;;;42.15;23.92;;;2.70;99.90;;;;;;5019785;28;20196;-35
2023/12/08 07:08:40;;;;;;;37.58;23.92;;;2.70;99.90;;;;;;5003607;28;20212;-37
2023/12/08 07:11:08;;;;;;;40.72;24.08;;;2.70;99.90;;;;;;5003797;28;20586;-44
2023/12/08 07:13:35;;;;;;;39.70;24.77;;;2.70;99.90;;;;;;5002189;28;20199;-41
2023/12/08 07:16:01;;;;;;;43.70;24.00;;;2.70;99.90;;;;;;5003325;28;20196;-38
2023/12/08 07:18:27;;;;;;;37.58;22.52;;;2.70;99.90;;;;;;5003142;28;20193;-36
2023/12/08 07:20:53;;;;;;;37.25;22.98;;;2.70;99.90;;;;;;5003055;28;20671;-36
2023/12/08 07:23:19;;;;;;;39.35;23.75;;;2.70;99.90;;;;;;5002968;28;20197;-36
2023/12/08 07:25:45;;;;;;;41.53;24.67;;;2.70;99.90;;;;;;5018557;28;20184;-38
2023/12/08 07:28:11;;;;;;;41.28;24.75;;;2.70;99.90;;;;;;5003696;28;20238;-36
2023/12/08 07:30:37;;;;;;;40.25;25.02;;;2.70;99.90;;;;;;5001822;28;20216;-39
2023/12/08 07:33:04;;;;;;;39.67;22.58;;;2.70;99.90;;;;;;5002891;28;20185;-37
2023/12/08 07:35:30;;;;;;;39.50;22.50;;;2.60;99.90;;;;;;5002386;28;20188;-38
2023/12/08 07:37:57;;;;;;;41.05;23.88;;;2.60;99.90;;;;;;5003263;28;20262;-38
2023/12/08 07:40:22;;;;;;;35.90;22.75;;;2.60;99.90;;;;;;5034366;28;20204;-35
2023/12/08 07:42:48;;;;;;;41.63;26.13;;;2.60;99.90;;;;;;5001541;28;20208;-36
2023/12/08 07:45:14;;;;;;;41.17;25.13;;;2.60;99.90;;;;;;5002923;28;20291;-38
2023/12/08 07:47:40;;;;;;;42.97;25.58;;;2.70;99.90;;;;;;5003352;28;20246;-37
2023/12/08 07:50:06;;;;;;;39.92;24.02;;;2.70;99.90;;;;;;5002483;28;20680;-38
2023/12/08 07:52:33;;;;;;;41.15;24.90;;;2.70;99.90;;;;;;5033084;28;20212;-36
2023/12/08 07:54:59;;;;;;;41.33;24.67;;;2.70;99.90;;;;;;5002159;28;20185;-37
2023/12/08 07:57:24;;;;;;;40.65;25.48;;;2.80;99.90;;;;;;5002329;28;20200;-35
2023/12/08 07:59:51;;;;;;;39.20;24.70;;;2.80;99.90;;;;;;5003058;28;20200;-41
2023/12/08 08:02:17;;;;;;;41.97;24.88;;;2.80;99.90;;;;;;5002233;28;20276;-41
2023/12/08 08:04:43;;;;;;;39.00;24.40;;;2.90;99.90;;;;;;5001961;28;20287;-35
2023/12/08 08:07:09;;;;;;;40.00;23.55;;;2.80;99.90;;;;;;5041084;28;20232;-36
2023/12/08 08:09:35;;;;;;;39.72;24.83;;;2.90;99.90;;;;;;5021448;28;20219;-37
2023/12/08 08:12:02;;;;;;;40.28;25.77;;;2.90;99.90;;;;;;5021568;28;20230;-36
2023/12/08 08:14:28;;;;;;;50.90;26.40;;;2.90;99.90;;;;;;5054073;28;20346;-37
2023/12/08 08:16:54;;;;;;;46.53;26.58;;;2.90;99.90;;;;;;5022178;28;20611;-38
2023/12/08 08:19:20;;;;;;;46.75;25.92;;;2.90;99.90;;;;;;5021422;28;20187;-35
2023/12/08 08:21:46;;;;;;;41.90;25.30;;;3.00;99.90;;;;;;5007649;28;20283;-37
2023/12/08 08:24:11;;;;;;;40.90;25.13;;;3.00;99.90;;;;;;5020250;28;21023;-36
2023/12/08 08:26:42;;;;;;;39.17;23.98;;;3.00;99.90;;;;;;5021759;28;20184;-37
2023/12/08 08:29:09;;;;;;;40.65;25.45;;;3.00;99.90;;;;;;5038355;28;20190;-37
2023/12/08 08:31:35;;;;;;;44.33;25.10;;;3.00;99.90;;;;;;5021040;28;20207;-36
2023/12/08 08:34:03;;;;;;;40.75;25.05;;;3.00;99.90;;;;;;5005788;28;20684;-35
2023/12/08 08:36:29;;;;;;;40.10;25.08;;;3.00;99.90;;;;;;5020208;28;20246;-35
2023/12/08 08:38:55;;;;;;;39.90;24.40;;;3.10;99.90;;;;;;5021450;28;20196;-38
2023/12/08 08:41:23;;;;;;;49.40;27.20;;;3.10;99.90;;;;;;5052866;28;20220;-37
2023/12/08 08:43:50;;;;;;;42.95;25.63;;;3.10;99.90;;;;;;5053967;28;20707;-36
2023/12/08 08:46:17;;;;;;;44.65;25.45;;;3.00;99.90;;;;;;5022016;28;20521;-37
2023/12/08 08:48:43;;;;;;;41.42;24.70;;;3.00;99.90;;;;;;5021242;28;20199;-36
2023/12/08 08:51:10;;;;;;;44.97;25.70;;;3.00;99.90;;;;;;5020655;28;20349;-37
2023/12/08 08:53:36;;;;;;;41.30;25.08;;;3.10;99.90;;;;;;5020034;28;20188;-35
2023/12/08 08:56:02;;;;;;;47.03;25.88;;;3.10;99.90;;;;;;5021054;28;20198;-36
2023/12/08 08:58:28;;;;;;;47.25;25.88;;;3.10;99.90;;;;;;5021309;28;20215;-36
2023/12/08 09:00:54;;;;;;;41.00;24.25;;;3.10;99.90;;;;;;5021820;28;20494;-36
2023/12/08 09:03:20;;;;;;;41.03;24.80;;;3.10;99.90;;;;;;5021503;28;20294;-37
2023/12/08 09:05:46;;;;;;;44.80;25.08;;;3.20;99.90;;;;;;5021153;28;20270;-38
2023/12/08 09:08:13;;;;;;;42.17;25.23;;;3.10;99.90;;;;;;5021135;28;20330;-36
2023/12/08 09:10:44;;;;;;;40.58;25.30;;;3.20;99.90;;;;;;5020610;28;20207;-38
2023/12/08 09:13:10;;;;;;;42.13;24.05;;;3.20;99.90;;;;;;5035180;28;20283;-38
2023/12/08 09:15:36;;;;;;;40.40;24.83;;;3.20;99.90;;;;;;5040548;28;20280;-38
2023/12/08 09:18:03;;;;;;;46.50;26.02;;;3.30;99.90;;;;;;5021439;28;20218;-36
2023/12/08 09:20:29;;;;;;;42.28;24.70;;;3.30;99.90;;;;;;5021389;28;20192;-36
2023/12/08 09:22:54;;;;;;;41.30;25.75;;;3.30;99.90;;;;;;5021977;28;20542;-34
2023/12/08 09:25:21;;;;;;;41.90;24.27;;;3.30;99.90;;;;;;5026257;28;20196;-37
2023/12/08 09:27:47;;;;;;;38.45;24.40;;;3.30;99.90;;;;;;5021006;28;20224;-36
2023/12/08 09:30:13;;;;;;;40.38;23.30;;;3.40;99.90;;;;;;5003407;28;20219;-38
2023/12/08 09:32:40;;;;;;;39.58;23.75;;;3.40;99.90;;;;;;5024705;28;20215;-36
2023/12/08 09:35:06;;;;;;;42.00;24.58;;;3.40;99.90;;;;;;5022023;28;20196;-36
2023/12/08 09:37:31;;;;;;;35.65;22.77;;;3.40;99.90;;;;;;5020672;28;20187;-36
2023/12/08 09:39:57;;;;;;;42.42;23.58;;;3.50;99.90;;;;;;5018697;28;20655;-37
2023/12/08 09:42:36;;;;;;;44.78;23.50;;;3.50;99.90;;;;;;5052619;28;20184;-36
2023/12/08 09:45:05;;;;;;;44.13;24.77;;;3.50;99.90;;;;;;5020620;28;20191;-37
2023/12/08 09:47:34;;;;;;;39.90;24.35;;;3.50;99.90;;;;;;5052394;28;20656;-37
2023/12/08 09:50:01;;;;;;;41.53;23.73;;;3.60;99.90;;;;;;5018028;28;20212;-36
2023/12/08 09:52:29;;;;;;;39.90;24.33;;;3.60;99.90;;;;;;5020762;28;20188;-36
2023/12/08 09:54:56;;;;;;;37.20;23.83;;;3.70;99.90;;;;;;5019980;28;20184;-36
2023/12/08 09:57:23;;;;;;;40.70;23.67;;;3.70;99.90;;;;;;5036705;28;20184;-36
2023/12/08 09:59:51;;;;;;;36.10;23.42;;;3.70;99.90;;;;;;5020283;28;20636;-37
2023/12/08 10:02:18;;;;;;;37.65;23.60;;;3.70;99.90;;;;;;5021106;28;20620;-38
2023/12/08 10:04:44;;;;;;;34.33;22.45;;;3.70;99.90;;;;;;5020181;28;20188;-36
2023/12/08 10:07:11;;;;;;;35.80;22.98;;;3.70;99.90;;;;;;5018308;28;20230;-36
2023/12/08 10:09:37;;;;;;;37.63;24.08;;;3.70;99.90;;;;;;5020426;28;20218;-36
2023/12/08 10:12:03;;;;;;;39.95;23.40;;;3.70;99.90;;;;;;5019740;28;21175;-36
2023/12/08 10:14:31;;;;;;;34.08;22.10;;;3.70;99.90;;;;;;5052133;28;20223;-38
2023/12/08 10:16:57;;;;;;;40.47;23.63;;;3.70;99.90;;;;;;5029772;28;20515;-37
2023/12/08 10:19:24;;;;;;;40.30;23.85;;;3.80;99.90;;;;;;5021052;28;20188;-36
2023/12/08 10:22:02;;;;;;;35.63;23.33;;;3.80;99.90;;;;;;5020469;28;20223;-36
2023/12/08 10:24:30;;;;;;;40.30;24.30;;;3.80;99.90;;;;;;5020860;28;20191;-36
2023/12/08 10:27:00;;;;;;;36.28;23.17;;;3.80;99.90;;;;;;5019847;28;20688;-37
2023/12/08 10:29:33;;;;;;;36.95;23.67;;;3.80;99.90;;;;;;5022291;28;20211;-37
2023/12/08 10:32:00;;;;;;;36.65;23.80;;;3.80;99.90;;;;;;5024786;28;20218;-36
2023/12/08 10:34:27;;;;;;;39.92;24.00;;;3.80;99.90;;;;;;5055910;28;20184;-37
2023/12/08 10:36:53;;;;;;;39.63;22.98;;;3.90;99.90;;;;;;5056900;28;20196;-36
2023/12/08 10:39:20;;;;;;;40.28;24.85;;;3.90;99.90;;;;;;5024228;28;20239;-40
2023/12/08 10:41:52;;;;;;;40.40;24.42;;;3.90;99.90;;;;;;5024313;28;20529;-36
2023/12/08 10:44:21;;;;;;;38.22;24.98;;;3.90;99.90;;;;;;5055427;28;20521;-37
2023/12/08 10:46:50;;;;;;;39.47;25.33;;;3.90;99.90;;;;;;5024737;28;20192;-35
2023/12/08 10:49:19;;;;;;;39.00;24.05;;;4.00;99.90;;;;;;5024202;28;20176;-35
2023/12/08 10:51:49;;;;;;;39.95;24.05;;;4.00;99.90;;;;;;5023394;28;20203;-34
2023/12/08 10:54:16;;;;;;;39.33;24.42;;;4.00;99.90;;;;;;5023309;28;20204;-36
2023/12/08 10:56:46;;;;;;;36.90;23.52;;;3.90;99.90;;;;;;5023379;28;20176;-35
2023/12/08 10:59:24;;;;;;;37.38;23.95;;;3.90;99.90;;;;;;5023560;28;20208;-38
2023/12/08 11:01:53;;;;;;;38.03;23.45;;;3.90;99.90;;;;;;5023599;28;21351;-37
2023/12/08 11:04:21;;;;;;;45.22;24.25;;;3.90;99.90;;;;;;5023871;28;20713;-37
2023/12/08 11:07:00;;;;;;;38.75;23.17;;;4.00;99.90;;;;;;5023534;28;20243;-35
2023/12/08 11:09:30;;;;;;;38.03;23.45;;;4.00;99.90;;;;;;5024268;28;20252;-35
2023/12/08 11:12:03;;;;;;;36.88;23.00;;;4.00;99.90;;;;;;5023265;28;20690;-37
2023/12/08 11:14:40;;;;;;;39.33;24.70;;;4.00;99.90;;;;;;5023582;28;20187;-37
2023/12/08 11:17:20;;;;;;;39.55;24.60;;;4.00;99.90;;;;;;5023781;28;20283;-37
2023/12/08 11:19:47;;;;;;;36.55;24.10;;;4.00;99.90;;;;;;5021583;28;20199;-36
2023/12/08 11:22:13;;;;;;;41.17;24.08;;;4.00;99.90;;;;;;5023471;28;20196;-37
2023/12/08 11:24:40;;;;;;;40.28;25.05;;;4.00;99.90;;;;;;5023819;28;20188;-35
2023/12/08 11:27:28;;;;;;;42.65;25.05;;;4.00;99.90;;;;;;5022810;28;20756;-37
2023/12/08 11:30:15;;;;;;;45.13;26.02;;;4.10;99.90;;;;;;5023324;28;20204;-34
2023/12/08 11:32:55;;;;;;;40.33;25.08;;;4.00;99.90;;;;;;5022459;28;20188;-37
2023/12/08 11:35:21;;;;;;;38.83;24.20;;;4.00;99.90;;;;;;5023169;28;20187;-36
2023/12/08 11:37:47;;;;;;;38.10;24.98;;;4.10;99.90;;;;;;5022519;28;20671;-37
2023/12/08 11:40:13;;;;;;;40.42;25.45;;;4.10;99.90;;;;;;5022582;28;20191;-37
2023/12/08 11:42:44;;;;;;;44.92;26.25;;;4.00;99.90;;;;;;5022912;28;20240;-38
2023/12/08 11:45:11;;;;;;;44.58;26.10;;;4.10;99.90;;;;;;5023209;28;20215;-37
2023/12/08 11:47:37;;;;;;;46.22;26.67;;;4.10;99.90;;;;;;5023188;28;21258;-37
2023/12/08 11:50:05;;;;;;;44.10;26.00;;;4.10;99.90;;;;;;5023130;28;20203;-36
2023/12/08 11:52:33;;;;;;;45.35;26.77;;;4.20;99.90;;;;;;5021474;28;20238;-37
2023/12/08 11:55:12;;;;;;;45.90;27.05;;;4.20;99.90;;;;;;5022003;28;20611;-36
2023/12/08 11:57:50;;;;;;;48.03;27.27;;;4.30;99.90;;;;;;5023009;28;20226;-39
2023/12/08 12:00:20;;;;;;;47.83;27.55;;;4.30;99.90;;;;;;5022182;28;20203;-37
2023/12/08 12:02:47;;;;;;;48.75;27.40;;;4.20;99.90;;;;;;5023376;28;20306;-35
2023/12/08 12:05:14;;;;;;;46.10;27.15;;;4.20;99.90;;;;;;5024087;28;20188;-38
2023/12/08 12:07:45;;;;;;;46.42;27.42;;;4.20;99.90;;;;;;5023049;28;20247;-34
2023/12/08 12:10:12;;;;;;;54.58;29.77;;;4.20;99.90;;;;;;5022819;28;21320;-36
2023/12/08 12:12:48;;;;;;;47.40;26.75;;;4.30;99.90;;;;;;5021801;28;20586;-36
2023/12/08 12:15:17;;;;;;;43.38;25.00;;;4.30;99.90;;;;;;5053832;28;20192;-36
2023/12/08 12:17:44;;;;;;;50.85;28.00;;;4.30;99.90;;;;;;5022025;28;20192;-37
2023/12/08 12:20:11;;;;;;;48.00;27.80;;;4.30;99.90;;;;;;5022655;28;20298;-34
2023/12/08 12:22:40;;;;;;;51.50;27.08;;;4.30;99.90;;;;;;5054733;28;20192;-37
2023/12/08 12:25:08;;;;;;;51.25;28.20;;;4.40;99.90;;;;;;5021982;28;21096;-36
2023/12/08 12:27:42;;;;;;;52.45;29.13;;;4.30;99.90;;;;;;5001863;28;20199;-37
2023/12/08 12:30:09;;;;;;;55.05;28.63;;;4.30;99.90;;;;;;5022153;28;20306;-37
2023/12/08 12:32:36;;;;;;;56.92;29.50;;;4.30;99.90;;;;;;5022094;28;20200;-36
2023/12/08 12:35:02;;;;;;;57.70;30.02;;;4.30;99.90;;;;;;5022095;28;20258;-34